Time;durP1;ratioP1;P1;durP2;ratioP2;P2;SDS_P1;SDS_P2;PMS_P1;PMS_P2;Temp;Humidity;BMP_temperature;BMP_pressure;BME280_temperature;BME280_humidity;BME280_pressure;Samples;Min_cycle;Max_cycle;Signal;HPM_P1;HPM_P2
2023/04/04 00:00:22;;;;;;;4.38;1.70;;;3.40;99.90;;;;;;5058942;28;20044;-71
2023/04/04 00:02:49;;;;;;;5.22;1.80;;;2.40;99.90;;;;;;5058357;28;20037;-71
2023/04/04 00:05:15;;;;;;;3.67;2.03;;;2.40;99.90;;;;;;5070273;28;20119;-71
2023/04/04 00:07:41;;;;;;;5.03;2.08;;;2.40;99.90;;;;;;5060678;28;20049;-70
2023/04/04 00:10:07;;;;;;;3.25;1.42;;;2.30;99.90;;;;;;5041841;28;20059;-70
2023/04/04 00:12:33;;;;;;;3.85;1.52;;;2.30;99.90;;;;;;5026125;28;20037;-71
2023/04/04 00:15:02;;;;;;;4.55;1.65;;;2.30;99.90;;;;;;5044513;28;20128;-71
2023/04/04 00:17:28;;;;;;;5.32;1.70;;;2.30;99.90;;;;;;5058196;28;20570;-71
2023/04/04 00:19:56;;;;;;;3.33;1.55;;;2.30;99.90;;;;;;5059063;28;20151;-71
2023/04/04 00:22:22;;;;;;;3.78;1.70;;;2.20;99.90;;;;;;5042849;28;20040;-70
2023/04/04 00:24:48;;;;;;;3.85;1.90;;;2.20;99.90;;;;;;5043968;28;20064;-71
2023/04/04 00:27:15;;;;;;;5.15;1.88;;;2.20;99.90;;;;;;5060117;28;20582;-71
2023/04/04 00:29:41;;;;;;;2.70;1.67;;;2.10;99.90;;;;;;5028090;28;20135;-70
2023/04/04 00:32:13;;;;;;;5.05;1.80;;;2.10;99.90;;;;;;5057028;28;20053;-70
2023/04/04 00:34:45;;;;;;;3.03;1.77;;;2.10;99.90;;;;;;5057478;28;20064;-71
2023/04/04 00:37:11;;;;;;;3.40;1.50;;;2.10;99.90;;;;;;5043993;28;20059;-71
2023/04/04 00:39:37;;;;;;;4.68;1.45;;;2.00;99.90;;;;;;5042725;28;20688;-70
2023/04/04 00:42:03;;;;;;;5.10;1.85;;;3.00;99.90;;;;;;5010803;28;20060;-71
2023/04/04 00:44:31;;;;;;;4.28;1.63;;;2.00;99.90;;;;;;5057184;28;20172;-69
2023/04/04 00:46:56;;;;;;;3.75;1.60;;;1.90;99.90;;;;;;5040235;28;20062;-70
2023/04/04 00:49:24;;;;;;;4.00;1.42;;;1.90;99.90;;;;;;5056686;28;20049;-70
2023/04/04 00:51:54;;;;;;;5.63;2.00;;;1.90;99.90;;;;;;5056321;28;20088;-71
2023/04/04 00:54:21;;;;;;;3.22;1.83;;;1.80;99.90;;;;;;5026378;28;20068;-72
2023/04/04 00:56:47;;;;;;;5.57;2.20;;;1.80;99.90;;;;;;5040616;28;20048;-72
2023/04/04 00:59:14;;;;;;;3.53;1.70;;;1.80;99.90;;;;;;5039304;28;20041;-70
2023/04/04 01:01:41;;;;;;;3.65;2.08;;;1.80;99.90;;;;;;5026278;28;20061;-72
2023/04/04 01:04:07;;;;;;;4.22;1.58;;;3.10;99.90;;;;;;5053863;28;20457;-71
2023/04/04 01:06:33;;;;;;;4.32;2.30;;;1.70;99.90;;;;;;5057700;28;20394;-70
2023/04/04 01:08:59;;;;;;;4.97;2.00;;;1.70;99.90;;;;;;5028400;28;20055;-71
2023/04/04 01:11:27;;;;;;;6.25;1.98;;;1.70;99.90;;;;;;5044940;28;20036;-70
2023/04/04 01:13:53;;;;;;;5.25;2.03;;;1.70;99.90;;;;;;5026668;28;20062;-71
2023/04/04 01:16:18;;;;;;;3.67;2.10;;;1.70;99.90;;;;;;5057493;28;20053;-70
2023/04/04 01:18:45;;;;;;;4.63;1.75;;;1.60;99.90;;;;;;5057398;28;20136;-72
2023/04/04 01:21:16;;;;;;;4.00;1.90;;;3.20;99.90;;;;;;5043814;28;20098;-72
2023/04/04 01:24:02;;;;;;;4.00;2.00;;;3.20;99.90;;;;;;5041282;28;20053;-71
2023/04/04 01:26:29;;;;;;;4.40;2.20;;;1.60;99.90;;;;;;5060196;28;20127;-70
2023/04/04 01:28:58;;;;;;;3.15;1.98;;;1.60;99.90;;;;;;5058862;28;20057;-71
2023/04/04 01:31:43;;;;;;;3.33;1.73;;;1.50;99.90;;;;;;5057766;28;20049;-72
2023/04/04 01:34:32;;;;;;;3.15;1.60;;;1.50;99.90;;;;;;5058071;28;20367;-71
2023/04/04 01:37:11;;;;;;;5.25;2.10;;;1.50;99.90;;;;;;5056455;28;20045;-71
2023/04/04 01:39:49;;;;;;;4.97;1.80;;;1.50;99.90;;;;;;5059542;28;20084;-71
2023/04/04 01:42:15;;;;;;;4.88;2.38;;;2.50;99.90;;;;;;5059304;28;20048;-71
2023/04/04 01:44:44;;;;;;;5.13;2.10;;;1.40;99.90;;;;;;5059731;28;20194;-71
2023/04/04 01:47:11;;;;;;;4.72;1.98;;;2.20;99.90;;;;;;5058758;28;20044;-70
2023/04/04 01:49:37;;;;;;;3.58;1.77;;;1.30;99.90;;;;;;5040622;28;20052;-72
2023/04/04 01:52:05;;;;;;;5.05;2.03;;;1.30;99.90;;;;;;5025375;28;20068;-70
2023/04/04 01:54:32;;;;;;;3.70;1.90;;;1.20;99.90;;;;;;5024375;28;20052;-71
2023/04/04 01:56:58;;;;;;;5.15;1.83;;;1.20;99.90;;;;;;5043216;28;20044;-70
2023/04/04 01:59:24;;;;;;;4.93;2.17;;;1.70;99.90;;;;;;5059166;28;20367;-72
2023/04/04 02:01:50;;;;;;;3.33;2.00;;;1.60;99.90;;;;;;5057821;28;20491;-70
2023/04/04 02:04:17;;;;;;;3.58;2.00;;;1.20;99.90;;;;;;5041878;28;20059;-71
2023/04/04 02:06:44;;;;;;;4.70;2.00;;;1.10;99.90;;;;;;5059462;28;20045;-72
2023/04/04 02:09:11;;;;;;;4.95;1.90;;;2.10;99.90;;;;;;5026532;28;20063;-71
2023/04/04 02:11:37;;;;;;;3.17;1.80;;;3.00;99.90;;;;;;5042082;28;20056;-70
2023/04/04 02:14:05;;;;;;;5.43;1.90;;;1.00;99.90;;;;;;5057794;28;20056;-71
2023/04/04 02:16:30;;;;;;;5.70;2.03;;;1.00;99.90;;;;;;5043657;28;20049;-71
2023/04/04 02:18:56;;;;;;;3.72;2.22;;;1.80;99.90;;;;;;5056549;28;20114;-71
2023/04/04 02:21:25;;;;;;;4.35;2.05;;;2.40;99.90;;;;;;5056544;28;20045;-72
2023/04/04 02:23:52;;;;;;;3.65;1.90;;;0.90;99.90;;;;;;5040785;28;20052;-71
2023/04/04 02:26:18;;;;;;;4.13;2.30;;;0.90;99.90;;;;;;5057820;28;20438;-72
2023/04/04 02:28:44;;;;;;;6.60;2.50;;;1.10;99.90;;;;;;5057677;28;20044;-70
2023/04/04 02:31:10;;;;;;;3.33;2.10;;;2.50;99.90;;;;;;5040540;28;20483;-73
2023/04/04 02:33:35;;;;;;;4.80;2.53;;;1.40;99.90;;;;;;5042758;28;20048;-70
2023/04/04 02:36:01;;;;;;;5.80;3.00;;;1.00;99.90;;;;;;5024393;28;20119;-69
2023/04/04 02:38:27;;;;;;;6.78;2.60;;;0.70;99.90;;;;;;5055193;28;20520;-71
2023/04/04 02:40:56;;;;;;;4.97;2.08;;;0.70;99.90;;;;;;5026595;28;20052;-71
2023/04/04 02:43:27;;;;;;;5.13;2.40;;;0.70;99.90;;;;;;5058933;28;20072;-70
2023/04/04 02:45:59;;;;;;;4.75;2.20;;;2.00;99.90;;;;;;5060799;28;20051;-71
2023/04/04 02:48:26;;;;;;;5.93;2.38;;;2.20;99.90;;;;;;5045649;28;20040;-71
2023/04/04 02:50:56;;;;;;;4.03;2.35;;;1.40;99.90;;;;;;5061288;28;20071;-70
2023/04/04 02:53:21;;;;;;;4.82;2.58;;;0.60;99.90;;;;;;5053946;28;20862;-72
2023/04/04 02:55:47;;;;;;;5.28;2.25;;;0.60;99.90;;;;;;5042676;28;20452;-71
2023/04/04 02:58:13;;;;;;;4.85;2.95;;;0.50;99.90;;;;;;5062010;28;20044;-71
2023/04/04 03:00:47;;;;;;;4.45;2.30;;;2.10;99.90;;;;;;5014262;28;20055;-71
2023/04/04 03:03:15;;;;;;;5.25;2.35;;;0.50;99.90;;;;;;5060774;28;20048;-71
2023/04/04 03:05:41;;;;;;;5.57;2.47;;;0.50;99.90;;;;;;5045273;28;20078;-71
2023/04/04 03:08:07;;;;;;;4.55;2.13;;;1.10;99.90;;;;;;5043933;28;20052;-70
2023/04/04 03:10:34;;;;;;;5.00;2.28;;;0.60;99.90;;;;;;5060996;28;20052;-72
2023/04/04 03:12:59;;;;;;;3.70;2.55;;;0.40;99.90;;;;;;5062216;28;20052;-72
2023/04/04 03:15:26;;;;;;;3.42;2.00;;;1.60;99.90;;;;;;5026410;28;20044;-71
2023/04/04 03:17:52;;;;;;;4.10;2.28;;;0.40;99.90;;;;;;5059257;28;20136;-71
2023/04/04 03:20:18;;;;;;;4.03;2.50;;;0.60;99.90;;;;;;5078250;28;20068;-70
2023/04/04 03:22:44;;;;;;;4.10;2.60;;;0.30;99.90;;;;;;5062348;28;21476;-72
2023/04/04 03:25:10;;;;;;;5.13;2.50;;;0.30;99.90;;;;;;5025373;28;20414;-70
2023/04/04 03:27:38;;;;;;;4.47;2.63;;;0.30;99.90;;;;;;5061011;28;20483;-71
2023/04/04 03:30:06;;;;;;;3.88;2.53;;;1.40;99.90;;;;;;5061030;28;20049;-71
2023/04/04 03:32:36;;;;;;;7.63;2.83;;;0.20;99.90;;;;;;5043305;28;20066;-70
2023/04/04 03:35:02;;;;;;;6.57;2.72;;;0.60;99.90;;;;;;5058212;28;20513;-71
2023/04/04 03:37:38;;;;;;;5.50;2.80;;;0.20;99.90;;;;;;5071235;28;20186;-71
2023/04/04 03:40:05;;;;;;;7.18;2.47;;;1.10;99.90;;;;;;5058590;28;20043;-71
2023/04/04 03:42:34;;;;;;;4.43;2.65;;;0.20;99.90;;;;;;5044533;28;20048;-71
2023/04/04 03:45:01;;;;;;;5.65;2.83;;;0.10;99.90;;;;;;5058780;28;20686;-70
2023/04/04 03:47:27;;;;;;;6.32;2.63;;;1.90;99.90;;;;;;5057938;28;20041;-70
2023/04/04 03:49:54;;;;;;;5.25;3.20;;;0.50;99.90;;;;;;5042526;28;20048;-70
2023/04/04 03:52:20;;;;;;;5.30;2.78;;;1.10;99.90;;;;;;5059962;28;20728;-71
2023/04/04 03:54:46;;;;;;;6.00;2.55;;;0.10;99.90;;;;;;5041727;28;20094;-71
2023/04/04 03:57:12;;;;;;;6.85;3.00;;;1.60;99.90;;;;;;5074727;28;20741;-71
2023/04/04 03:59:37;;;;;;;7.43;3.15;;;0.00;99.90;;;;;;5058625;28;20131;-71
2023/04/04 04:02:03;;;;;;;6.60;2.95;;;0.80;99.90;;;;;;5058506;28;20132;-70
2023/04/04 04:04:29;;;;;;;7.22;2.90;;;0.00;99.90;;;;;;5059365;28;20208;-71
2023/04/04 04:07:04;;;;;;;6.25;3.33;;;0.00;99.90;;;;;;5061561;28;20043;-71
2023/04/04 04:09:30;;;;;;;6.65;2.88;;;0.50;99.90;;;;;;5058544;28;20536;-70
2023/04/04 04:11:56;;;;;;;4.60;3.08;;;-0.10;99.90;;;;;;5075549;28;20056;-71
2023/04/04 04:14:22;;;;;;;5.57;2.88;;;-0.10;99.90;;;;;;5042730;28;20063;-70
2023/04/04 04:16:48;;;;;;;5.75;2.83;;;-0.10;99.90;;;;;;5057370;28;20040;-70
2023/04/04 04:19:16;;;;;;;6.32;3.40;;;0.70;99.90;;;;;;5058040;28;20079;-71
2023/04/04 04:21:42;;;;;;;5.03;2.97;;;-0.20;99.90;;;;;;5060810;28;20088;-72
2023/04/04 04:24:10;;;;;;;5.43;3.22;;;0.50;99.90;;;;;;5060591;28;20048;-70
2023/04/04 04:26:36;;;;;;;6.93;3.08;;;-0.20;99.90;;;;;;5043607;28;20047;-70
2023/04/04 04:29:02;;;;;;;6.10;2.78;;;0.70;99.90;;;;;;5043731;28;20044;-72
2023/04/04 04:31:30;;;;;;;5.75;3.17;;;-0.20;99.90;;;;;;5007326;28;20057;-71
2023/04/04 04:33:56;;;;;;;5.20;2.70;;;-0.30;99.90;;;;;;5060635;28;20399;-72
2023/04/04 04:36:22;;;;;;;7.35;3.30;;;-0.30;99.90;;;;;;5026292;28;20402;-70
2023/04/04 04:38:48;;;;;;;5.60;3.20;;;-0.30;99.90;;;;;;5026967;28;20088;-72
2023/04/04 04:41:14;;;;;;;8.27;3.65;;;-0.30;99.90;;;;;;5044354;28;20048;-71
2023/04/04 04:43:40;;;;;;;6.75;3.22;;;-0.30;99.90;;;;;;5041990;28;20135;-71
2023/04/04 04:46:07;;;;;;;5.22;3.17;;;0.10;99.90;;;;;;5059135;28;20056;-70
2023/04/04 04:48:33;;;;;;;7.85;4.47;;;-0.40;99.90;;;;;;5057509;28;20075;-71
2023/04/04 04:50:59;;;;;;;8.90;3.38;;;-0.40;99.90;;;;;;5058155;28;20097;-70
2023/04/04 04:53:26;;;;;;;6.55;3.10;;;-0.40;99.90;;;;;;5057102;28;20049;-72
2023/04/04 04:55:52;;;;;;;4.28;2.80;;;-0.40;99.90;;;;;;5058866;28;20079;-71
2023/04/04 04:58:21;;;;;;;7.50;3.50;;;1.20;99.90;;;;;;5025792;28;20135;-71
2023/04/04 05:00:47;;;;;;;6.68;3.25;;;-0.40;99.90;;;;;;5025148;28;20135;-72
2023/04/04 05:03:14;;;;;;;5.75;3.30;;;-0.40;99.90;;;;;;5055693;28;20127;-71
2023/04/04 05:05:42;;;;;;;5.45;3.03;;;-0.40;99.90;;;;;;5058435;28;20131;-71
2023/04/04 05:08:09;;;;;;;6.32;3.75;;;;;;;;;;5044802;28;20052;-70
2023/04/04 05:10:34;;;;;;;7.72;3.20;;;-0.40;99.90;;;;;;5043172;28;20444;-70
2023/04/04 05:13:00;;;;;;;6.20;3.80;;;-0.40;99.90;;;;;;5041477;28;20056;-71
2023/04/04 05:15:28;;;;;;;6.20;3.67;;;-0.40;99.90;;;;;;5042041;28;20040;-71
2023/04/04 05:17:59;;;;;;;5.63;3.47;;;1.20;99.90;;;;;;5042339;28;20052;-71
2023/04/04 05:20:32;;;;;;;6.07;3.40;;;-0.40;99.90;;;;;;5058191;28;20059;-70
2023/04/04 05:22:58;;;;;;;9.38;3.38;;;-0.40;99.90;;;;;;5056829;28;20117;-71
2023/04/04 05:25:29;;;;;;;5.75;3.60;;;1.10;99.90;;;;;;5040196;28;20052;-72
2023/04/04 05:27:57;;;;;;;6.13;3.95;;;1.60;99.90;;;;;;5058902;28;20048;-71
2023/04/04 05:30:23;;;;;;;7.20;3.92;;;-0.40;99.90;;;;;;5041374;28;20090;-72
2023/04/04 05:32:52;;;;;;;8.10;3.45;;;1.70;99.90;;;;;;5043407;28;20056;-72
2023/04/04 05:35:25;;;;;;;6.50;3.40;;;-2.20;99.90;;;;;;5042466;28;20114;-70
2023/04/04 05:37:51;;;;;;;5.10;3.42;;;-0.40;99.90;;;;;;5070634;28;20076;-72
2023/04/04 05:40:19;;;;;;;6.32;3.60;;;0.40;99.90;;;;;;5058183;28;20786;-74
2023/04/04 05:42:56;;;;;;;6.00;3.40;;;-0.30;99.90;;;;;;5039134;28;20109;-73
2023/04/04 05:45:22;;;;;;;6.13;3.40;;;-0.30;99.90;;;;;;5057145;28;20049;-74
2023/04/04 05:47:48;;;;;;;7.10;4.00;;;-0.30;99.90;;;;;;5039513;28;20054;-73
2023/04/04 05:50:14;;;;;;;6.03;3.90;;;-0.30;99.90;;;;;;5022309;28;20047;-72
2023/04/04 05:52:40;;;;;;;7.22;3.80;;;-0.30;99.90;;;;;;5072620;28;20520;-74
2023/04/04 05:55:08;;;;;;;6.93;4.15;;;1.30;99.90;;;;;;5055118;28;20044;-73
2023/04/04 05:57:34;;;;;;;9.52;3.88;;;-0.20;99.90;;;;;;5058199;28;20041;-71
2023/04/04 06:00:00;;;;;;;7.15;3.78;;;-0.20;99.90;;;;;;5041209;28;20498;-74
2023/04/04 06:02:30;;;;;;;8.57;3.90;;;-0.20;99.90;;;;;;5054854;28;20135;-74
2023/04/04 06:04:56;;;;;;;11.90;4.20;;;1.30;99.90;;;;;;5055399;28;20055;-74
2023/04/04 06:07:21;;;;;;;9.07;4.47;;;-0.20;99.90;;;;;;5044675;28;20048;-73
2023/04/04 06:09:47;;;;;;;8.00;4.03;;;-0.20;99.90;;;;;;5055803;28;20121;-74
2023/04/04 06:12:15;;;;;;;7.72;3.90;;;1.50;99.90;;;;;;5039062;28;20052;-73
2023/04/04 06:14:40;;;;;;;6.20;3.67;;;-0.10;99.90;;;;;;5041441;28;20453;-75
2023/04/04 06:17:06;;;;;;;7.18;4.32;;;-0.10;99.90;;;;;;5058270;28;20055;-73
2023/04/04 06:19:32;;;;;;;7.30;4.45;;;0.00;99.90;;;;;;5052210;28;20151;-74
2023/04/04 06:21:58;;;;;;;8.63;4.07;;;0.00;99.90;;;;;;5041279;28;20536;-73
2023/04/04 06:24:24;;;;;;;5.07;3.90;;;0.10;99.90;;;;;;5040149;28;20049;-74
2023/04/04 06:26:51;;;;;;;7.20;4.47;;;0.10;99.90;;;;;;5039448;28;20414;-74
2023/04/04 06:29:17;;;;;;;9.07;4.78;;;0.20;99.90;;;;;;5055399;28;20561;-72
2023/04/04 06:31:44;;;;;;;5.97;4.25;;;0.20;99.90;;;;;;5057309;28;20052;-73
2023/04/04 06:34:13;;;;;;;8.82;4.95;;;0.30;99.90;;;;;;5071062;28;20052;-72
2023/04/04 06:36:39;;;;;;;7.13;4.90;;;0.40;99.90;;;;;;5057820;28;20807;-71
2023/04/04 06:39:05;;;;;;;6.68;4.18;;;0.50;99.90;;;;;;5059780;28;20053;-70
2023/04/04 06:41:31;;;;;;;7.97;4.80;;;0.60;99.90;;;;;;5041808;28;20072;-69
2023/04/04 06:43:59;;;;;;;9.70;4.70;;;0.70;99.90;;;;;;5056485;28;20087;-74
2023/04/04 06:46:30;;;;;;;8.13;4.65;;;0.80;99.90;;;;;;5059833;28;20101;-72
2023/04/04 06:48:56;;;;;;;10.65;5.40;;;0.90;99.90;;;;;;5056744;28;20040;-72
2023/04/04 06:51:22;;;;;;;9.55;5.20;;;1.60;99.90;;;;;;5059540;28;20055;-69
2023/04/04 06:53:50;;;;;;;8.75;4.60;;;1.50;99.90;;;;;;5041538;28;20056;-69
2023/04/04 06:56:16;;;;;;;8.77;5.10;;;1.30;99.90;;;;;;5059923;28;20062;-69
2023/04/04 06:58:42;;;;;;;9.43;4.95;;;1.40;99.90;;;;;;5060324;28;20616;-70
2023/04/04 07:01:10;;;;;;;8.75;4.70;;;2.40;99.90;;;;;;5042261;28;20106;-71
2023/04/04 07:03:36;;;;;;;9.45;5.00;;;1.60;99.90;;;;;;5058155;28;20048;-70
2023/04/04 07:06:03;;;;;;;9.70;4.55;;;2.80;99.90;;;;;;5042499;28;20128;-69
2023/04/04 07:08:30;;;;;;;9.65;4.85;;;1.90;99.90;;;;;;5059807;28;20065;-70
2023/04/04 07:10:57;;;;;;;7.57;4.43;;;2.00;99.90;;;;;;5041271;28;20071;-71
2023/04/04 07:13:22;;;;;;;7.45;4.93;;;2.50;99.90;;;;;;5060429;28;20565;-70
2023/04/04 07:15:49;;;;;;;8.73;5.25;;;1.70;99.90;;;;;;5057257;28;20131;-71
2023/04/04 07:18:15;;;;;;;9.13;5.50;;;2.90;99.90;;;;;;5059809;28;20053;-70
2023/04/04 07:20:42;;;;;;;9.15;4.55;;;2.70;99.90;;;;;;5056967;28;20056;-71
2023/04/04 07:23:12;;;;;;;8.73;5.35;;;2.80;99.90;;;;;;5043461;28;20052;-71
2023/04/04 07:25:38;;;;;;;8.25;4.75;;;3.00;99.90;;;;;;5045485;28;20083;-71
2023/04/04 07:28:11;;;;;;;7.40;4.13;;;3.20;99.90;;;;;;5062221;28;20055;-70
2023/04/04 07:30:36;;;;;;;11.80;4.47;;;3.50;99.90;;;;;;5068170;28;20053;-70
2023/04/04 07:33:03;;;;;;;6.88;4.13;;;3.70;99.90;;;;;;5065234;28;20060;-71
2023/04/04 07:35:29;;;;;;;8.65;3.80;;;3.90;99.90;;;;;;5043257;28;20043;-72
2023/04/04 07:37:55;;;;;;;7.28;4.07;;;4.10;99.90;;;;;;5064138;28;20054;-71
2023/04/04 07:40:21;;;;;;;6.05;3.90;;;4.30;99.90;;;;;;5082430;28;20263;-71
2023/04/04 07:42:53;;;;;;;7.38;4.22;;;4.50;99.90;;;;;;5049525;28;20041;-72
2023/04/04 07:45:20;;;;;;;6.43;4.03;;;4.60;99.90;;;;;;5031519;28;20052;-73
2023/04/04 07:47:46;;;;;;;5.70;3.45;;;6.60;99.90;;;;;;5063626;28;20098;-69
2023/04/04 07:50:17;;;;;;;10.32;4.30;;;4.90;99.90;;;;;;5066547;28;20564;-72
2023/04/04 07:52:48;;;;;;;7.57;3.88;;;5.10;99.90;;;;;;5064979;28;20135;-72
2023/04/04 07:55:14;;;;;;;6.82;3.78;;;5.40;99.90;;;;;;5063068;28;20094;-73
2023/04/04 07:57:41;;;;;;;8.15;4.13;;;5.60;99.90;;;;;;5031352;28;20249;-71
2023/04/04 08:00:08;;;;;;;5.78;3.47;;;5.80;99.90;;;;;;5013635;28;20055;-72
2023/04/04 08:02:36;;;;;;;6.72;3.95;;;6.00;99.90;;;;;;5066886;28;20040;-72
2023/04/04 08:05:02;;;;;;;7.57;3.67;;;6.20;99.90;;;;;;5058019;28;20128;-72
2023/04/04 08:07:28;;;;;;;7.88;3.88;;;6.30;99.90;;;;;;5050085;28;20562;-72
2023/04/04 08:09:53;;;;;;;7.80;3.60;;;6.50;99.90;;;;;;5063422;28;20148;-70
2023/04/04 08:12:19;;;;;;;10.02;4.45;;;6.60;99.90;;;;;;5064128;28;20075;-71
2023/04/04 08:14:45;;;;;;;11.77;3.65;;;6.80;99.90;;;;;;5062165;28;20123;-71
2023/04/04 08:17:17;;;;;;;7.15;3.42;;;6.90;99.90;;;;;;5063907;28;20064;-72
2023/04/04 08:19:44;;;;;;;7.55;4.32;;;7.10;99.90;;;;;;5063205;28;20036;-71
2023/04/04 08:22:09;;;;;;;5.70;3.22;;;7.20;99.90;;;;;;5065504;28;20123;-72
2023/04/04 08:24:35;;;;;;;10.20;3.67;;;7.30;99.90;;;;;;5028639;28;20044;-71
2023/04/04 08:27:05;;;;;;;4.93;3.38;;;7.30;99.90;;;;;;5062142;28;20047;-71
2023/04/04 08:29:31;;;;;;;7.70;3.58;;;7.40;99.90;;;;;;5059890;28;20071;-70
2023/04/04 08:31:58;;;;;;;6.38;3.55;;;7.50;99.90;;;;;;5061345;28;20409;-69
2023/04/04 08:34:25;;;;;;;6.80;3.17;;;7.70;99.90;;;;;;5062779;28;20048;-72
2023/04/04 08:36:51;;;;;;;6.43;3.72;;;7.40;99.90;;;;;;5062866;28;20075;-71
2023/04/04 08:39:19;;;;;;;6.72;3.60;;;8.10;99.90;;;;;;5078630;28;20067;-71
2023/04/04 08:41:45;;;;;;;9.50;3.47;;;8.30;99.90;;;;;;5047810;28;20494;-71
2023/04/04 08:44:19;;;;;;;5.50;3.25;;;8.50;99.90;;;;;;5049223;28;20048;-71
2023/04/04 08:46:46;;;;;;;7.05;3.00;;;8.60;99.90;;;;;;5064749;28;20052;-70
2023/04/04 08:49:14;;;;;;;5.03;3.80;;;8.90;99.90;;;;;;5030882;28;20390;-70
2023/04/04 08:51:43;;;;;;;6.15;3.45;;;9.10;99.90;;;;;;5064150;28;20060;-71
2023/04/04 08:54:12;;;;;;;5.15;2.67;;;9.20;99.90;;;;;;5066207;28;20153;-70
2023/04/04 08:56:37;;;;;;;6.68;3.40;;;9.40;99.90;;;;;;5048492;28;20045;-71
2023/04/04 08:59:03;;;;;;;6.85;3.03;;;9.70;99.90;;;;;;5064472;28;20052;-71
2023/04/04 09:01:29;;;;;;;6.72;3.25;;;9.80;99.90;;;;;;5063561;28;20760;-71
2023/04/04 09:03:56;;;;;;;6.78;3.30;;;9.90;99.90;;;;;;5064821;28;20056;-71
2023/04/04 09:06:23;;;;;;;5.78;3.42;;;10.00;99.90;;;;;;5064632;28;20048;-72
2023/04/04 09:08:52;;;;;;;7.20;3.55;;;10.00;99.90;;;;;;5055161;28;20040;-71
2023/04/04 09:11:20;;;;;;;5.63;3.60;;;10.10;99.90;;;;;;5047117;28;20147;-74
2023/04/04 09:13:49;;;;;;;6.25;3.80;;;10.10;99.90;;;;;;5041227;28;20051;-72
2023/04/04 09:16:16;;;;;;;5.53;3.00;;;10.30;99.90;;;;;;5060915;28;20053;-70
2023/04/04 09:18:42;;;;;;;7.03;3.47;;;10.30;99.90;;;;;;5058420;28;20037;-71
2023/04/04 09:21:10;;;;;;;5.90;2.90;;;10.50;99.90;;;;;;5053399;28;20237;-71
2023/04/04 09:23:45;;;;;;;5.40;3.00;;;10.80;99.90;;;;;;5060082;28;20052;-72
2023/04/04 09:26:15;;;;;;;5.65;3.05;;;10.90;99.90;;;;;;5042856;28;20067;-71
2023/04/04 09:28:41;;;;;;;6.78;3.42;;;11.10;99.90;;;;;;5059980;28;20051;-72
2023/04/04 09:31:08;;;;;;;6.78;3.20;;;11.30;99.90;;;;;;5042390;28;20040;-73
2023/04/04 09:33:35;;;;;;;5.72;3.05;;;11.20;99.90;;;;;;5056413;28;20170;-73
2023/04/04 09:36:08;;;;;;;6.93;3.75;;;11.40;99.90;;;;;;5056845;28;20040;-74
2023/04/04 09:38:38;;;;;;;6.55;3.55;;;11.40;99.90;;;;;;5055908;28;20044;-72
2023/04/04 09:41:09;;;;;;;5.80;3.30;;;11.20;99.90;;;;;;5057106;28;20048;-74
2023/04/04 09:43:38;;;;;;;7.35;3.38;;;11.30;99.90;;;;;;5042026;28;20134;-73
2023/04/04 09:46:05;;;;;;;5.68;3.35;;;11.10;99.90;;;;;;5059134;28;20048;-72
2023/04/04 09:48:33;;;;;;;5.28;3.33;;;11.00;99.90;;;;;;5057079;28;20516;-72
2023/04/04 09:51:02;;;;;;;8.13;4.40;;;10.80;99.90;;;;;;5053948;28;20052;-72
2023/04/04 09:53:30;;;;;;;7.38;5.13;;;10.90;99.90;;;;;;5038792;28;20063;-69
2023/04/04 09:56:01;;;;;;;8.85;4.88;;;11.00;99.90;;;;;;5060244;28;20072;-75
2023/04/04 09:58:34;;;;;;;10.50;6.90;;;11.20;99.90;;;;;;5043374;28;20123;-75
2023/04/04 10:01:01;;;;;;;7.00;4.63;;;11.30;99.90;;;;;;5063429;28;20304;-73
2023/04/04 10:03:28;;;;;;;7.22;4.30;;;11.50;99.90;;;;;;5058967;28;20048;-73
2023/04/04 10:06:00;;;;;;;6.10;3.80;;;11.70;99.90;;;;;;5074652;28;20080;-79
2023/04/04 10:08:27;;;;;;;6.93;3.70;;;11.90;99.90;;;;;;5057298;28;20049;-74
2023/04/04 10:11:05;;;;;;;6.20;3.88;;;11.40;99.90;;;;;;5058613;28;20444;-75
2023/04/04 10:13:34;;;;;;;4.88;3.28;;;12.20;99.90;;;;;;5057505;28;20446;-75
2023/04/04 10:16:04;;;;;;;7.50;3.83;;;12.40;99.90;;;;;;5051533;28;20147;-74
2023/04/04 10:18:34;;;;;;;4.90;3.10;;;12.60;99.90;;;;;;5058958;28;20102;-74
2023/04/04 10:21:02;;;;;;;7.20;3.20;;;12.90;99.90;;;;;;5042869;28;20104;-74
2023/04/04 10:23:28;;;;;;;6.55;3.55;;;13.20;99.90;;;;;;5042561;28;20604;-73
2023/04/04 10:25:57;;;;;;;5.72;3.17;;;13.40;99.20;;;;;;5059241;28;20049;-73
2023/04/04 10:28:25;;;;;;;5.18;3.22;;;13.60;98.80;;;;;;5053981;28;20048;-73
2023/04/04 10:30:57;;;;;;;5.75;3.30;;;13.70;98.50;;;;;;5060407;28;20109;-73
2023/04/04 10:33:34;;;;;;;5.43;3.08;;;13.90;98.10;;;;;;5057239;28;20123;-70
2023/04/04 10:36:02;;;;;;;6.40;3.15;;;14.00;97.40;;;;;;5056584;28;20048;-71
2023/04/04 10:38:33;;;;;;;6.88;3.70;;;13.90;97.20;;;;;;5040199;28;20053;-70
2023/04/04 10:41:01;;;;;;;6.40;3.20;;;13.80;96.90;;;;;;5057851;28;20056;-71
2023/04/04 10:43:31;;;;;;;5.75;3.30;;;13.60;97.00;;;;;;5053254;28;20048;-72
2023/04/04 10:46:12;;;;;;;4.75;3.15;;;13.40;97.20;;;;;;5058595;28;20040;-70
2023/04/04 10:48:43;;;;;;;5.10;3.33;;;13.20;96.20;;;;;;5070346;28;20119;-71
2023/04/04 10:51:16;;;;;;;7.72;3.83;;;13.20;96.70;;;;;;5041717;28;20170;-72
2023/04/04 10:53:43;;;;;;;4.55;3.03;;;13.50;97.30;;;;;;5058535;28;20119;-71
2023/04/04 10:56:11;;;;;;;7.07;3.47;;;13.60;96.60;;;;;;5042109;28;20072;-72
2023/04/04 10:58:40;;;;;;;5.95;3.55;;;13.70;95.70;;;;;;5038802;28;20049;-71
2023/04/04 11:01:07;;;;;;;5.57;3.72;;;14.00;95.50;;;;;;5040681;28;20394;-71
2023/04/04 11:04:22;;;;;;;5.40;3.38;;;14.10;95.30;;;;;;5039653;28;20052;-71
2023/04/04 11:07:12;;;;;;;4.90;2.83;;;14.30;93.90;;;;;;5055973;28;20048;-72
2023/04/04 11:09:55;;;;;;;4.63;3.05;;;14.50;94.10;;;;;;5043338;28;20060;-72
2023/04/04 11:12:35;;;;;;;5.90;3.30;;;14.60;94.20;;;;;;5061454;28;20059;-73
2023/04/04 11:15:01;;;;;;;6.60;3.15;;;14.80;94.30;;;;;;5058502;28;20056;-72
2023/04/04 11:17:58;;;;;;;4.80;2.85;;;14.90;93.60;;;;;;5062591;28;20036;-72
2023/04/04 11:20:32;;;;;;;5.40;3.15;;;15.00;91.70;;;;;;5061678;28;20415;-71
2023/04/04 11:23:04;;;;;;;6.57;3.00;;;15.10;92.10;;;;;;5060681;28;20043;-71
2023/04/04 11:25:32;;;;;;;5.65;3.88;;;15.20;91.60;;;;;;5059447;28;20049;-74
2023/04/04 11:28:02;;;;;;;4.65;3.00;;;15.20;91.80;;;;;;5063062;28;20044;-71
2023/04/04 11:30:28;;;;;;;7.95;3.60;;;15.20;91.60;;;;;;5045843;28;20040;-71
2023/04/04 11:32:58;;;;;;;5.75;3.30;;;15.10;91.40;;;;;;5060603;28;20045;-73
2023/04/04 11:35:24;;;;;;;5.00;3.22;;;14.90;89.80;;;;;;5042223;28;20047;-71
2023/04/04 11:37:50;;;;;;;6.65;3.72;;;14.90;90.60;;;;;;5024212;28;20395;-71
2023/04/04 11:40:16;;;;;;;4.82;3.53;;;15.00;90.20;;;;;;5056120;28;20041;-72
2023/04/04 11:42:43;;;;;;;5.38;3.47;;;15.20;88.90;;;;;;5063575;28;20046;-71
2023/04/04 11:45:18;;;;;;;5.47;3.47;;;15.40;87.70;;;;;;5049045;28;20063;-71
2023/04/04 11:47:48;;;;;;;4.63;3.08;;;15.40;84.70;;;;;;5066692;28;20166;-72
2023/04/04 11:50:15;;;;;;;6.28;3.60;;;15.70;84.10;;;;;;5063230;28;20048;-72
2023/04/04 11:52:41;;;;;;;6.45;3.70;;;15.60;83.00;;;;;;5049776;28;20049;-70
2023/04/04 11:55:18;;;;;;;6.22;3.38;;;15.30;81.90;;;;;;5048809;28;20057;-72
2023/04/04 11:57:50;;;;;;;6.88;3.90;;;15.30;79.40;;;;;;5034193;28;20383;-71
2023/04/04 12:00:38;;;;;;;6.90;3.55;;;15.30;81.20;;;;;;5045053;28;20048;-73
2023/04/04 12:03:17;;;;;;;7.05;3.75;;;15.40;80.30;;;;;;5061264;28;20048;-71
2023/04/04 12:05:43;;;;;;;6.38;3.60;;;15.60;78.00;;;;;;5061424;28;20078;-72
2023/04/04 12:08:11;;;;;;;6.93;3.65;;;16.00;79.70;;;;;;5044440;28;20048;-71
2023/04/04 12:10:39;;;;;;;8.45;3.65;;;16.40;78.50;;;;;;5060168;28;20040;-72
2023/04/04 12:13:07;;;;;;;4.32;3.08;;;16.50;76.60;;;;;;5063651;28;20395;-72
2023/04/04 12:15:39;;;;;;;4.90;3.70;;;16.70;75.90;;;;;;5061620;28;20064;-73
2023/04/04 12:18:07;;;;;;;5.75;3.63;;;16.50;73.80;;;;;;5059946;28;20049;-72
2023/04/04 12:20:33;;;;;;;4.93;3.58;;;16.60;74.70;;;;;;5079191;28;20058;-72
2023/04/04 12:22:58;;;;;;;6.05;3.53;;;16.80;74.10;;;;;;5045639;28;21051;-72
2023/04/04 12:25:27;;;;;;;7.32;3.70;;;16.90;72.90;;;;;;5061852;28;20465;-72
2023/04/04 12:27:55;;;;;;;6.35;3.60;;;16.80;71.80;;;;;;5060496;28;20051;-72
2023/04/04 12:30:24;;;;;;;8.98;3.60;;;16.50;70.50;;;;;;5076920;28;20056;-71
2023/04/04 12:32:50;;;;;;;7.70;3.88;;;16.50;70.90;;;;;;5049001;28;20154;-72
2023/04/04 12:35:17;;;;;;;7.25;3.75;;;16.50;70.70;;;;;;5062113;28;20402;-71
2023/04/04 12:38:02;;;;;;;7.13;4.50;;;16.50;70.60;;;;;;5062218;28;20399;-71
2023/04/04 12:40:36;;;;;;;6.50;3.67;;;16.40;69.10;;;;;;5058876;28;20067;-72
2023/04/04 12:43:04;;;;;;;6.10;4.22;;;16.40;71.20;;;;;;5061248;28;20125;-72
2023/04/04 12:45:30;;;;;;;7.03;4.10;;;16.60;70.00;;;;;;5062721;28;20058;-72
2023/04/04 12:47:58;;;;;;;6.32;3.88;;;16.50;69.60;;;;;;5063902;28;20104;-71
2023/04/04 12:50:27;;;;;;;6.78;4.70;;;16.80;69.90;;;;;;5042997;28;20044;-72
2023/04/04 12:52:53;;;;;;;6.55;3.67;;;16.80;69.40;;;;;;5062304;28;20118;-71
2023/04/04 12:55:21;;;;;;;7.93;3.90;;;16.70;68.90;;;;;;5043115;28;20402;-71
2023/04/04 12:57:48;;;;;;;7.32;3.88;;;16.70;68.40;;;;;;5039425;28;20144;-72